createdAt,value
2023-05-14T00:00:36.373Z,94526.00
2023-05-14T00:01:36.400Z,94528.00
2023-05-14T00:02:36.484Z,94530.00
2023-05-14T00:03:36.495Z,94530.00
2023-05-14T00:04:36.565Z,94528.00
2023-05-14T00:05:36.425Z,94526.00
2023-05-14T00:06:36.454Z,94526.00
2023-05-14T00:07:36.456Z,94528.00
2023-05-14T00:08:36.472Z,94530.00
2023-05-14T00:09:36.482Z,94530.00
2023-05-14T00:10:36.525Z,94530.00
2023-05-14T00:11:36.535Z,94530.00
2023-05-14T00:12:36.529Z,94528.00
2023-05-14T00:13:36.538Z,94530.00
2023-05-14T00:14:36.555Z,94528.00
2023-05-14T00:15:36.578Z,94526.00
2023-05-14T00:16:36.655Z,94526.00
2023-05-14T00:17:36.637Z,94526.00
2023-05-14T00:18:36.637Z,94526.00
2023-05-14T00:19:36.639Z,94526.00
2023-05-14T00:20:36.643Z,94526.00
2023-05-14T00:21:36.662Z,94524.00
2023-05-14T00:22:36.667Z,94526.00
2023-05-14T00:23:36.680Z,94522.00
2023-05-14T00:24:36.727Z,94522.00
2023-05-14T00:25:36.713Z,94520.00
2023-05-14T00:26:36.748Z,94522.00
2023-05-14T00:27:36.756Z,94520.00
2023-05-14T00:28:36.790Z,94520.00
2023-05-14T00:29:36.847Z,94516.00
2023-05-14T00:30:36.798Z,94518.00
2023-05-14T00:31:36.881Z,94518.00
2023-05-14T00:32:36.867Z,94514.00
2023-05-14T00:33:36.864Z,94514.00
2023-05-14T00:34:36.899Z,94512.00
2023-05-14T00:35:36.870Z,94512.00
2023-05-14T00:36:36.889Z,94512.00
2023-05-14T00:37:36.909Z,94512.00
2023-05-14T00:38:36.941Z,94510.00
2023-05-14T00:39:36.939Z,94512.00
2023-05-14T00:40:36.962Z,94506.00
2023-05-14T00:41:36.967Z,94512.00
2023-05-14T00:42:36.984Z,94514.00
2023-05-14T00:43:37.007Z,94514.00
2023-05-14T00:44:37.018Z,94508.00
2023-05-14T00:45:37.040Z,94508.00
2023-05-14T00:46:37.063Z,94514.00
2023-05-14T00:47:37.090Z,94514.00
2023-05-14T00:48:37.085Z,94514.00
2023-05-14T00:49:37.088Z,94510.00
2023-05-14T00:50:37.109Z,94510.00
2023-05-14T00:51:37.137Z,94510.00
2023-05-14T00:52:37.132Z,94510.00
2023-05-14T00:53:37.167Z,94510.00
2023-05-14T00:54:37.165Z,94510.00
2023-05-14T00:55:37.184Z,94508.00
2023-05-14T00:56:37.206Z,94516.00
2023-05-14T00:57:37.219Z,94510.00
2023-05-14T00:58:37.231Z,94510.00
2023-05-14T00:59:37.267Z,94512.00
2023-05-14T01:00:37.335Z,94510.00
2023-05-14T01:01:37.295Z,94510.00
2023-05-14T01:02:37.379Z,94512.00
2023-05-14T01:03:37.456Z,94512.00
2023-05-14T01:04:37.352Z,94512.00
2023-05-14T01:05:37.355Z,94508.00
2023-05-14T01:06:37.364Z,94512.00
2023-05-14T01:07:37.400Z,94512.00
2023-05-14T01:08:37.426Z,94512.00
2023-05-14T01:09:37.447Z,94510.00
2023-05-14T01:10:37.488Z,94510.00
2023-05-14T01:11:37.470Z,94510.00
2023-05-14T01:12:37.469Z,94510.00
2023-05-14T01:13:37.500Z,94506.00
2023-05-14T01:14:37.512Z,94506.00
2023-05-14T01:15:37.555Z,94504.00
2023-05-14T01:16:37.560Z,94504.00
2023-05-14T01:17:37.587Z,94504.00
2023-05-14T01:18:37.669Z,94502.00
2023-05-14T01:19:37.585Z,94502.00
2023-05-14T01:20:37.620Z,94500.00
2023-05-14T01:21:37.623Z,94500.00
2023-05-14T01:22:37.626Z,94500.00
2023-05-14T01:23:37.653Z,94500.00
2023-05-14T01:24:37.663Z,94500.00
2023-05-14T01:25:37.664Z,94502.00
2023-05-14T01:26:37.715Z,94502.00
2023-05-14T01:27:37.694Z,94502.00
2023-05-14T01:28:37.705Z,94502.00
2023-05-14T01:29:37.718Z,94502.00
2023-05-14T01:30:37.730Z,94502.00
2023-05-14T01:31:37.774Z,94502.00
2023-05-14T01:32:37.758Z,94500.00
2023-05-14T01:33:37.798Z,94502.00
2023-05-14T01:34:37.778Z,94500.00
2023-05-14T01:35:37.793Z,94500.00
2023-05-14T01:36:37.812Z,94500.00
2023-05-14T01:37:37.815Z,94502.00
2023-05-14T01:38:37.837Z,94500.00
2023-05-14T01:39:37.859Z,94500.00
2023-05-14T01:40:37.851Z,94502.00
2023-05-14T01:41:37.862Z,94500.00
2023-05-14T01:42:37.860Z,94502.00
2023-05-14T01:43:37.940Z,94498.00
2023-05-14T01:44:37.905Z,94500.00
2023-05-14T01:45:37.919Z,94498.00
2023-05-14T01:46:38.125Z,94502.00
2023-05-14T01:47:37.987Z,94498.00
2023-05-14T01:48:37.970Z,94500.00
2023-05-14T01:49:37.990Z,94500.00
2023-05-14T01:50:38.008Z,94500.00
2023-05-14T01:51:38.035Z,94500.00
2023-05-14T01:52:38.047Z,94500.00
2023-05-14T01:53:38.069Z,94500.00
2023-05-14T01:54:38.083Z,94498.00
2023-05-14T01:55:38.107Z,94498.00
2023-05-14T01:56:38.117Z,94496.00
2023-05-14T01:57:38.133Z,94496.00
2023-05-14T01:58:38.149Z,94496.00
2023-05-14T01:59:38.172Z,94496.00
2023-05-14T02:00:38.210Z,94494.00
2023-05-14T02:01:38.279Z,94494.00
2023-05-14T02:02:38.275Z,94492.00
2023-05-14T02:03:38.291Z,94492.00
2023-05-14T02:04:38.346Z,94490.00
2023-05-14T02:05:38.333Z,94490.00
2023-05-14T02:06:38.350Z,94490.00
2023-05-14T02:07:38.380Z,94490.00
2023-05-14T02:08:38.420Z,94490.00
2023-05-14T02:09:38.417Z,94490.00
2023-05-14T02:10:38.439Z,94488.00
2023-05-14T02:11:38.464Z,94486.00
2023-05-14T02:12:38.478Z,94488.00
2023-05-14T02:13:38.507Z,94488.00
2023-05-14T02:14:38.514Z,94484.00
2023-05-14T02:15:38.584Z,94484.00
2023-05-14T02:16:38.563Z,94482.00
2023-05-14T02:17:38.674Z,94482.00
2023-05-14T02:18:38.658Z,94481.00
2023-05-14T02:19:38.648Z,94481.00
2023-05-14T02:20:38.657Z,94482.00
2023-05-14T02:21:38.679Z,94481.00
2023-05-14T02:22:38.702Z,94481.00
2023-05-14T02:23:41.836Z,94481.00
2023-05-14T02:24:38.723Z,94481.00
2023-05-14T02:25:38.730Z,94482.00
2023-05-14T02:26:38.692Z,94482.00
2023-05-14T02:27:38.683Z,94482.00
2023-05-14T02:28:38.723Z,94481.00
2023-05-14T02:29:38.712Z,94481.00
2023-05-14T02:30:38.680Z,94481.00
2023-05-14T02:31:38.672Z,94481.00
2023-05-14T02:32:38.753Z,94482.00
2023-05-14T02:33:38.661Z,94481.00
2023-05-14T02:34:38.641Z,94479.00
2023-05-14T02:35:38.647Z,94481.00
2023-05-14T02:36:38.620Z,94481.00
2023-05-14T02:37:38.644Z,94482.00
2023-05-14T02:38:38.613Z,94481.00
2023-05-14T02:39:38.643Z,94475.00
2023-05-14T02:40:38.609Z,94475.00
2023-05-14T02:41:38.594Z,94475.00
2023-05-14T02:42:38.586Z,94473.00
2023-05-14T02:43:38.592Z,94471.00
2023-05-14T02:44:38.581Z,94471.00
2023-05-14T02:45:38.590Z,94471.00
2023-05-14T02:46:38.582Z,94469.00
2023-05-14T02:47:38.605Z,94467.00
2023-05-14T02:48:38.554Z,94467.00
2023-05-14T02:49:38.544Z,94467.00
2023-05-14T02:50:38.541Z,94465.00
2023-05-14T02:51:38.548Z,94463.00
2023-05-14T02:52:38.541Z,94463.00
2023-05-14T02:53:38.533Z,94459.00
2023-05-14T02:54:38.520Z,94459.00
2023-05-14T02:55:38.511Z,94455.00
2023-05-14T02:56:38.518Z,94459.00
2023-05-14T02:57:38.506Z,94459.00
2023-05-14T02:58:38.488Z,94457.00
2023-05-14T02:59:38.495Z,94461.00
2023-05-14T03:00:38.514Z,94463.00
2023-05-14T03:01:38.489Z,94463.00
2023-05-14T03:02:38.551Z,94463.00
2023-05-14T03:03:38.453Z,94461.00
2023-05-14T03:04:38.455Z,94461.00
2023-05-14T03:05:38.457Z,94459.00
2023-05-14T03:06:38.442Z,94459.00
2023-05-14T03:07:38.429Z,94461.00
2023-05-14T03:08:38.432Z,94461.00
2023-05-14T03:09:38.577Z,94459.00
2023-05-14T03:10:38.422Z,94461.00
2023-05-14T03:11:38.419Z,94461.00
2023-05-14T03:12:38.390Z,94461.00
2023-05-14T03:13:38.395Z,94463.00
2023-05-14T03:14:38.374Z,94461.00
2023-05-14T03:15:38.373Z,94461.00
2023-05-14T03:16:38.390Z,94459.00
2023-05-14T03:17:38.411Z,94461.00
2023-05-14T03:18:38.398Z,94461.00
2023-05-14T03:19:38.337Z,94457.00
2023-05-14T03:20:38.344Z,94457.00
2023-05-14T03:21:38.346Z,94459.00
2023-05-14T03:22:38.336Z,94455.00
2023-05-14T03:23:38.351Z,94455.00
2023-05-14T03:24:38.396Z,94453.00
2023-05-14T03:25:38.419Z,94453.00
2023-05-14T03:26:38.447Z,94451.00
2023-05-14T03:27:38.473Z,94451.00
2023-05-14T03:28:38.520Z,94449.00
2023-05-14T03:29:38.561Z,94449.00
2023-05-14T03:30:38.600Z,94449.00
2023-05-14T03:31:38.607Z,94449.00
2023-05-14T03:32:38.678Z,94449.00
2023-05-14T03:33:38.661Z,94449.00
2023-05-14T03:34:38.696Z,94447.00
2023-05-14T03:35:38.751Z,94449.00
2023-05-14T03:36:38.743Z,94449.00
2023-05-14T03:37:38.778Z,94449.00
2023-05-14T03:38:38.800Z,94451.00
2023-05-14T03:39:38.836Z,94451.00
2023-05-14T03:40:38.861Z,94451.00
2023-05-14T03:41:38.880Z,94451.00
2023-05-14T03:42:38.891Z,94453.00
2023-05-14T03:43:38.922Z,94453.00
2023-05-14T03:44:38.945Z,94453.00
2023-05-14T03:45:38.993Z,94453.00
2023-05-14T03:46:38.989Z,94451.00
2023-05-14T03:47:39.062Z,94451.00
2023-05-14T03:48:39.073Z,94451.00
2023-05-14T03:49:39.064Z,94451.00
2023-05-14T03:50:39.105Z,94451.00
2023-05-14T03:51:39.168Z,94449.00
2023-05-14T03:52:39.144Z,94447.00
2023-05-14T03:53:39.190Z,94451.00
2023-05-14T03:54:39.207Z,94451.00
2023-05-14T03:55:39.241Z,94449.00
2023-05-14T03:56:39.283Z,94451.00
2023-05-14T03:57:39.281Z,94455.00
2023-05-14T03:58:39.305Z,94457.00
2023-05-14T03:59:39.320Z,94455.00
2023-05-14T04:00:39.348Z,94457.00
2023-05-14T04:01:39.388Z,94457.00
2023-05-14T04:02:39.621Z,94459.00
2023-05-14T04:03:39.513Z,94459.00
2023-05-14T04:04:39.502Z,94459.00
2023-05-14T04:05:39.476Z,94461.00
2023-05-14T04:06:39.500Z,94461.00
2023-05-14T04:07:39.559Z,94461.00
2023-05-14T04:08:39.556Z,94459.00
2023-05-14T04:09:39.588Z,94459.00
2023-05-14T04:10:39.610Z,94461.00
2023-05-14T04:11:39.646Z,94459.00
2023-05-14T04:12:39.653Z,94459.00
2023-05-14T04:13:39.678Z,94457.00
2023-05-14T04:14:39.699Z,94457.00
2023-05-14T04:15:39.724Z,94459.00
2023-05-14T04:16:39.819Z,94457.00
2023-05-14T04:17:39.810Z,94453.00
2023-05-14T04:18:39.829Z,94451.00
2023-05-14T04:19:39.822Z,94449.00
2023-05-14T04:20:39.851Z,94451.00
2023-05-14T04:21:39.903Z,94449.00
2023-05-14T04:22:39.917Z,94447.00
2023-05-14T04:23:39.935Z,94445.00
2023-05-14T04:24:39.930Z,94447.00
2023-05-14T04:25:39.962Z,94447.00
2023-05-14T04:26:39.986Z,94445.00
2023-05-14T04:27:40.004Z,94447.00
2023-05-14T04:28:40.039Z,94447.00
2023-05-14T04:29:40.056Z,94447.00
2023-05-14T04:30:40.086Z,94447.00
2023-05-14T04:31:40.158Z,94449.00
2023-05-14T04:32:40.155Z,94451.00
2023-05-14T04:33:40.201Z,94447.00
2023-05-14T04:34:40.184Z,94447.00
2023-05-14T04:35:40.224Z,94447.00
2023-05-14T04:36:40.273Z,94447.00
2023-05-14T04:37:40.258Z,94445.00
2023-05-14T04:38:40.287Z,94451.00
2023-05-14T04:39:40.310Z,94447.00
2023-05-14T04:40:40.362Z,94449.00
2023-05-14T04:41:40.384Z,94449.00
2023-05-14T04:42:40.385Z,94451.00
2023-05-14T04:43:40.415Z,94451.00
2023-05-14T04:44:40.468Z,94451.00
2023-05-14T04:45:40.532Z,94451.00
2023-05-14T04:46:40.495Z,94449.00
2023-05-14T04:47:40.582Z,94447.00
2023-05-14T04:48:40.556Z,94449.00
2023-05-14T04:49:40.576Z,94451.00
2023-05-14T04:50:40.602Z,94451.00
2023-05-14T04:51:40.638Z,94451.00
2023-05-14T04:52:40.673Z,94453.00
2023-05-14T04:53:40.682Z,94451.00
2023-05-14T04:54:40.771Z,94457.00
2023-05-14T04:55:40.712Z,94457.00
2023-05-14T04:56:40.758Z,94455.00
2023-05-14T04:57:40.765Z,94457.00
2023-05-14T04:58:40.802Z,94457.00
2023-05-14T04:59:40.834Z,94455.00
2023-05-14T05:00:40.863Z,94451.00
2023-05-14T05:01:40.977Z,94451.00
2023-05-14T05:02:40.941Z,94445.00
2023-05-14T05:03:40.977Z,94447.00
2023-05-14T05:04:40.989Z,94445.00
2023-05-14T05:05:41.010Z,94443.00
2023-05-14T05:06:41.036Z,94441.00
2023-05-14T05:07:41.126Z,94441.00
2023-05-14T05:08:41.101Z,94443.00
2023-05-14T05:09:41.152Z,94443.00
2023-05-14T05:10:41.178Z,94445.00
2023-05-14T05:11:41.559Z,94447.00
2023-05-14T05:12:41.227Z,94449.00
2023-05-14T05:13:41.255Z,94447.00
2023-05-14T05:14:41.303Z,94451.00
2023-05-14T05:15:41.305Z,94451.00
2023-05-14T05:16:41.337Z,94451.00
2023-05-14T05:17:41.388Z,94449.00
2023-05-14T05:18:41.433Z,94453.00
2023-05-14T05:19:44.290Z,94457.00
2023-05-14T05:20:41.411Z,94455.00
2023-05-14T05:21:41.409Z,94459.00
2023-05-14T05:22:41.400Z,94453.00
2023-05-14T05:23:41.385Z,94453.00
2023-05-14T05:24:41.387Z,94451.00
2023-05-14T05:25:41.381Z,94451.00
2023-05-14T05:26:41.375Z,94447.00
2023-05-14T05:27:41.356Z,94449.00
2023-05-14T05:28:41.353Z,94447.00
2023-05-14T05:29:41.359Z,94447.00
2023-05-14T05:30:41.354Z,94447.00
2023-05-14T05:31:41.424Z,94447.00
2023-05-14T05:32:41.374Z,94451.00
2023-05-14T05:33:41.339Z,94451.00
2023-05-14T05:34:41.312Z,94447.00
2023-05-14T05:35:41.310Z,94449.00
2023-05-14T05:36:41.306Z,94449.00
2023-05-14T05:37:41.305Z,94451.00
2023-05-14T05:38:41.293Z,94451.00
2023-05-14T05:39:41.298Z,94453.00
2023-05-14T05:40:41.282Z,94453.00
2023-05-14T05:41:41.266Z,94455.00
2023-05-14T05:42:41.279Z,94457.00
2023-05-14T05:43:41.267Z,94455.00
2023-05-14T05:44:41.245Z,94457.00
2023-05-14T05:45:41.267Z,94457.00
2023-05-14T05:46:41.362Z,94457.00
2023-05-14T05:47:41.302Z,94461.00
2023-05-14T05:48:41.218Z,94459.00
2023-05-14T05:49:41.209Z,94459.00
2023-05-14T05:50:41.228Z,94459.00
2023-05-14T05:51:41.206Z,94459.00
2023-05-14T05:52:41.198Z,94457.00
2023-05-14T05:53:41.206Z,94457.00
2023-05-14T05:54:41.174Z,94455.00
2023-05-14T05:55:41.212Z,94453.00
2023-05-14T05:56:41.165Z,94453.00
2023-05-14T05:57:41.158Z,94453.00
2023-05-14T05:58:41.146Z,94451.00
2023-05-14T05:59:41.151Z,94453.00
2023-05-14T06:00:41.137Z,94451.00
2023-05-14T06:01:41.198Z,94451.00
2023-05-14T06:02:41.220Z,94449.00
2023-05-14T06:03:41.130Z,94447.00
2023-05-14T06:04:41.109Z,94447.00
2023-05-14T06:05:41.206Z,94447.00
2023-05-14T06:06:41.095Z,94449.00
2023-05-14T06:07:41.097Z,94445.00
2023-05-14T06:08:41.080Z,94445.00
2023-05-14T06:09:41.071Z,94441.00
2023-05-14T06:10:41.068Z,94443.00
2023-05-14T06:11:41.070Z,94441.00
2023-05-14T06:12:41.055Z,94439.00
2023-05-14T06:13:41.036Z,94437.00
2023-05-14T06:14:41.038Z,94439.00
2023-05-14T06:15:41.048Z,94437.00
2023-05-14T06:16:41.038Z,94439.00
2023-05-14T06:17:41.083Z,94437.00
2023-05-14T06:18:41.097Z,94437.00
2023-05-14T06:19:41.088Z,94439.00
2023-05-14T06:20:41.110Z,94439.00
2023-05-14T06:21:41.153Z,94439.00
2023-05-14T06:22:41.174Z,94439.00
2023-05-14T06:23:41.193Z,94439.00
2023-05-14T06:24:41.217Z,94437.00
2023-05-14T06:25:41.267Z,94435.00
2023-05-14T06:26:41.276Z,94434.00
2023-05-14T06:27:41.299Z,94432.00
2023-05-14T06:28:41.329Z,94432.00
2023-05-14T06:29:41.353Z,94432.00
2023-05-14T06:30:41.393Z,94432.00
2023-05-14T06:31:41.428Z,94430.00
2023-05-14T06:32:41.551Z,94430.00
2023-05-14T06:33:41.467Z,94430.00
2023-05-14T06:34:41.481Z,94430.00
2023-05-14T06:35:41.517Z,94430.00
2023-05-14T06:36:41.549Z,94430.00
2023-05-14T06:37:41.576Z,94430.00
2023-05-14T06:38:41.577Z,94430.00
2023-05-14T06:39:41.617Z,94430.00
2023-05-14T06:40:41.637Z,94428.00
2023-05-14T06:41:41.666Z,94424.00
2023-05-14T06:42:41.686Z,94426.00
2023-05-14T06:43:41.709Z,94422.00
2023-05-14T06:44:41.732Z,94422.00
2023-05-14T06:45:41.758Z,94422.00
2023-05-14T06:46:41.767Z,94418.00
2023-05-14T06:47:41.823Z,94418.00
2023-05-14T06:48:41.834Z,94420.00
2023-05-14T06:49:41.836Z,94424.00
2023-05-14T06:50:41.847Z,94426.00
2023-05-14T06:51:41.873Z,94424.00
2023-05-14T06:52:41.896Z,94424.00
2023-05-14T06:53:41.904Z,94424.00
2023-05-14T06:54:41.943Z,94424.00
2023-05-14T06:55:41.958Z,94426.00
2023-05-14T06:56:41.978Z,94430.00
2023-05-14T06:57:41.999Z,94430.00
2023-05-14T06:58:42.014Z,94430.00
2023-05-14T06:59:42.044Z,94428.00
2023-05-14T07:00:42.055Z,94430.00
2023-05-14T07:01:42.175Z,94428.00
2023-05-14T07:02:42.127Z,94434.00
2023-05-14T07:03:42.116Z,94432.00
2023-05-14T07:04:42.314Z,94428.00
2023-05-14T07:05:42.174Z,94428.00
2023-05-14T07:06:42.197Z,94426.00
2023-05-14T07:07:42.207Z,94422.00
2023-05-14T07:08:42.243Z,94424.00
2023-05-14T07:09:42.268Z,94422.00
2023-05-14T07:10:42.271Z,94418.00
2023-05-14T07:11:42.300Z,94422.00
2023-05-14T07:12:42.320Z,94416.00
2023-05-14T07:13:42.343Z,94414.00
2023-05-14T07:14:42.347Z,94412.00
2023-05-14T07:15:42.370Z,94410.00
2023-05-14T07:16:42.457Z,94408.00
2023-05-14T07:17:42.451Z,94408.00
2023-05-14T07:18:42.449Z,94410.00
2023-05-14T07:19:42.442Z,94410.00
2023-05-14T07:20:42.455Z,94412.00
2023-05-14T07:21:42.478Z,94412.00
2023-05-14T07:22:42.508Z,94412.00
2023-05-14T07:23:42.497Z,94408.00
2023-05-14T07:24:42.554Z,94412.00
2023-05-14T07:25:42.533Z,94406.00
2023-05-14T07:26:42.581Z,94406.00
2023-05-14T07:27:42.575Z,94402.00
2023-05-14T07:28:42.621Z,94402.00
2023-05-14T07:29:42.616Z,94398.00
2023-05-14T07:30:42.623Z,94396.00
2023-05-14T07:31:42.730Z,94398.00
2023-05-14T07:32:42.706Z,94394.00
2023-05-14T07:33:42.677Z,94396.00
2023-05-14T07:34:42.691Z,94392.00
2023-05-14T07:35:42.694Z,94394.00
2023-05-14T07:36:42.706Z,94390.00
2023-05-14T07:37:42.728Z,94388.00
2023-05-14T07:38:42.731Z,94388.00
2023-05-14T07:39:42.734Z,94384.00
2023-05-14T07:40:42.778Z,94386.00
2023-05-14T07:41:42.772Z,94386.00
2023-05-14T07:42:42.771Z,94380.00
2023-05-14T07:43:42.784Z,94382.00
2023-05-14T07:44:42.811Z,94382.00
2023-05-14T07:45:42.825Z,94380.00
2023-05-14T07:46:42.840Z,94373.00
2023-05-14T07:47:42.942Z,94373.00
2023-05-14T07:48:42.869Z,94371.00
2023-05-14T07:49:42.817Z,94371.00
2023-05-14T07:50:42.817Z,94371.00
2023-05-14T07:51:42.856Z,94369.00
2023-05-14T07:52:42.821Z,94371.00
2023-05-14T07:53:42.827Z,94369.00
2023-05-14T07:54:42.841Z,94365.00
2023-05-14T07:55:42.831Z,94363.00
2023-05-14T07:56:42.873Z,94361.00
2023-05-14T07:57:42.846Z,94357.00
2023-05-14T07:58:42.857Z,94357.00
2023-05-14T07:59:42.854Z,94355.00
2023-05-14T08:00:42.838Z,94353.00
2023-05-14T08:01:42.844Z,94351.00
2023-05-14T08:02:42.928Z,94351.00
2023-05-14T08:03:42.942Z,94347.00
2023-05-14T08:04:42.833Z,94347.00
2023-05-14T08:05:42.818Z,94345.00
2023-05-14T08:06:42.841Z,94343.00
2023-05-14T08:07:42.808Z,94343.00
2023-05-14T08:08:42.837Z,94340.00
2023-05-14T08:09:42.818Z,94343.00
2023-05-14T08:10:42.844Z,94340.00
2023-05-14T08:11:42.837Z,94340.00
2023-05-14T08:12:42.856Z,94336.00
2023-05-14T08:13:42.810Z,94334.00
2023-05-14T08:14:42.815Z,94332.00
2023-05-14T08:15:42.822Z,94330.00
2023-05-14T08:16:42.906Z,94330.00
2023-05-14T08:17:42.913Z,94326.00
2023-05-14T08:18:42.943Z,94324.00
2023-05-14T08:19:42.870Z,94324.00
2023-05-14T08:20:42.905Z,94326.00
2023-05-14T08:21:42.954Z,94326.00
2023-05-14T08:22:42.975Z,94326.00
2023-05-14T08:23:43.020Z,94324.00
2023-05-14T08:24:43.044Z,94322.00
2023-05-14T08:25:43.082Z,94324.00
2023-05-14T08:26:43.195Z,94320.00
2023-05-14T08:27:43.210Z,94324.00
2023-05-14T08:28:43.271Z,94320.00
2023-05-14T08:29:43.327Z,94318.00
2023-05-14T08:30:43.389Z,94316.00
2023-05-14T08:31:43.468Z,94316.00
2023-05-14T08:32:43.554Z,94312.00
2023-05-14T08:33:43.597Z,94310.00
2023-05-14T08:34:44.134Z,94308.00
2023-05-14T08:35:43.696Z,94306.00
2023-05-14T08:36:43.760Z,94310.00
2023-05-14T08:37:43.824Z,94306.00
2023-05-14T08:38:43.880Z,94308.00
2023-05-14T08:39:43.932Z,94308.00
2023-05-14T08:40:43.991Z,94310.00
2023-05-14T08:41:44.057Z,94310.00
2023-05-14T08:42:44.118Z,94310.00
2023-05-14T08:43:44.164Z,94310.00
2023-05-14T08:44:44.257Z,94306.00
2023-05-14T08:45:44.272Z,94304.00
2023-05-14T08:46:44.295Z,94306.00
2023-05-14T08:47:44.378Z,94304.00
2023-05-14T08:48:44.416Z,94302.00
2023-05-14T08:49:44.461Z,94298.00
2023-05-14T08:50:44.483Z,94296.00
2023-05-14T08:51:44.538Z,94296.00
2023-05-14T08:52:44.578Z,94298.00
2023-05-14T08:53:44.620Z,94296.00
2023-05-14T08:54:44.648Z,94294.00
2023-05-14T08:55:44.692Z,94296.00
2023-05-14T08:56:44.719Z,94294.00
2023-05-14T08:57:44.787Z,94294.00
2023-05-14T08:58:44.791Z,94294.00
2023-05-14T08:59:44.834Z,94292.00
2023-05-14T09:00:44.868Z,94294.00
2023-05-14T09:01:44.917Z,94290.00
2023-05-14T09:02:45.007Z,94287.00
2023-05-14T09:03:45.007Z,94290.00
2023-05-14T09:04:45.015Z,94288.00
2023-05-14T09:05:45.040Z,94288.00
2023-05-14T09:06:45.080Z,94287.00
2023-05-14T09:07:45.116Z,94285.00
2023-05-14T09:08:45.150Z,94283.00
2023-05-14T09:09:45.168Z,94281.00
2023-05-14T09:10:45.210Z,94283.00
2023-05-14T09:11:45.232Z,94285.00
2023-05-14T09:12:45.268Z,94285.00
2023-05-14T09:13:45.380Z,94285.00
2023-05-14T09:14:45.324Z,94283.00
2023-05-14T09:15:45.356Z,94285.00
2023-05-14T09:16:45.434Z,94285.00
2023-05-14T09:17:45.474Z,94285.00
2023-05-14T09:18:45.536Z,94285.00
2023-05-14T09:19:45.479Z,94285.00
2023-05-14T09:20:45.520Z,94283.00
2023-05-14T09:21:45.543Z,94283.00
2023-05-14T09:22:45.580Z,94285.00
2023-05-14T09:23:45.606Z,94281.00
2023-05-14T09:24:45.628Z,94283.00
2023-05-14T09:25:45.659Z,94283.00
2023-05-14T09:26:45.684Z,94281.00
2023-05-14T09:27:45.717Z,94283.00
2023-05-14T09:28:45.762Z,94277.00
2023-05-14T09:29:45.785Z,94279.00
2023-05-14T09:30:45.844Z,94273.00
2023-05-14T09:31:45.947Z,94271.00
2023-05-14T09:32:46.047Z,94269.00
2023-05-14T09:33:45.916Z,94265.00
2023-05-14T09:34:45.960Z,94263.00
2023-05-14T09:35:45.982Z,94265.00
2023-05-14T09:36:46.008Z,94263.00
2023-05-14T09:37:46.074Z,94263.00
2023-05-14T09:38:46.074Z,94259.00
2023-05-14T09:39:46.107Z,94259.00
2023-05-14T09:40:46.149Z,94259.00
2023-05-14T09:41:46.197Z,94259.00
2023-05-14T09:42:46.216Z,94255.00
2023-05-14T09:43:46.238Z,94255.00
2023-05-14T09:44:46.270Z,94253.00
2023-05-14T09:45:46.299Z,94251.00
2023-05-14T09:46:46.329Z,94247.00
2023-05-14T09:47:46.510Z,94247.00
2023-05-14T09:48:46.465Z,94241.00
2023-05-14T09:49:46.433Z,94243.00
2023-05-14T09:50:46.463Z,94240.00
2023-05-14T09:51:46.492Z,94238.00
2023-05-14T09:52:46.515Z,94238.00
2023-05-14T09:53:46.551Z,94236.00
2023-05-14T09:54:46.597Z,94234.00
2023-05-14T09:55:46.623Z,94234.00
2023-05-14T09:56:46.653Z,94230.00
2023-05-14T09:57:46.710Z,94228.00
2023-05-14T09:58:46.717Z,94228.00
2023-05-14T09:59:46.754Z,94226.00
2023-05-14T10:00:46.814Z,94224.00
2023-05-14T10:01:46.839Z,94224.00
2023-05-14T10:02:46.934Z,94224.00
2023-05-14T10:03:46.916Z,94226.00
2023-05-14T10:04:46.988Z,94224.00
2023-05-14T10:05:46.967Z,94222.00
2023-05-14T10:06:47.003Z,94224.00
2023-05-14T10:07:47.057Z,94218.00
2023-05-14T10:08:47.058Z,94220.00
2023-05-14T10:09:47.101Z,94220.00
2023-05-14T10:10:47.137Z,94218.00
2023-05-14T10:11:47.158Z,94218.00
2023-05-14T10:12:47.237Z,94218.00
2023-05-14T10:13:47.223Z,94218.00
2023-05-14T10:14:47.302Z,94216.00
2023-05-14T10:15:47.317Z,94216.00
2023-05-14T10:16:47.376Z,94214.00
2023-05-14T10:17:47.429Z,94218.00
2023-05-14T10:18:47.455Z,94216.00
2023-05-14T10:19:47.477Z,94214.00
2023-05-14T10:20:47.496Z,94214.00
2023-05-14T10:21:47.555Z,94212.00
2023-05-14T10:22:47.597Z,94210.00
2023-05-14T10:23:47.623Z,94210.00
2023-05-14T10:24:47.678Z,94206.00
2023-05-14T10:25:47.695Z,94204.00
2023-05-14T10:26:47.749Z,94204.00
2023-05-14T10:27:47.777Z,94204.00
2023-05-14T10:28:47.809Z,94202.00
2023-05-14T10:29:47.859Z,94202.00
2023-05-14T10:30:47.879Z,94194.00
2023-05-14T10:31:48.028Z,94194.00
2023-05-14T10:32:48.002Z,94194.00
2023-05-14T10:33:48.001Z,94194.00
2023-05-14T10:34:48.037Z,94194.00
2023-05-14T10:35:48.079Z,94194.00
2023-05-14T10:36:48.128Z,94194.00
2023-05-14T10:37:48.168Z,94196.00
2023-05-14T10:38:48.202Z,94192.00
2023-05-14T10:39:48.243Z,94194.00
2023-05-14T10:40:48.296Z,94194.00
2023-05-14T10:41:48.335Z,94192.00
2023-05-14T10:42:48.382Z,94190.00
2023-05-14T10:43:48.413Z,94190.00
2023-05-14T10:44:48.472Z,94188.00
2023-05-14T10:45:48.528Z,94186.00
2023-05-14T10:46:48.567Z,94188.00
2023-05-14T10:47:48.792Z,94190.00
2023-05-14T10:48:48.640Z,94190.00
2023-05-14T10:49:48.670Z,94190.00
2023-05-14T10:50:48.741Z,94192.00
2023-05-14T10:51:48.770Z,94188.00
2023-05-14T10:52:48.822Z,94186.00
2023-05-14T10:53:48.847Z,94185.00
2023-05-14T10:54:48.907Z,94185.00
2023-05-14T10:55:48.939Z,94185.00
2023-05-14T10:56:48.986Z,94183.00
2023-05-14T10:57:49.041Z,94179.00
2023-05-14T10:58:49.081Z,94179.00
2023-05-14T10:59:49.137Z,94175.00
2023-05-14T11:00:49.177Z,94175.00
2023-05-14T11:01:49.283Z,94171.00
2023-05-14T11:02:49.278Z,94171.00
2023-05-14T11:03:49.362Z,94169.00
2023-05-14T11:04:49.364Z,94167.00
2023-05-14T11:05:49.414Z,94167.00
2023-05-14T11:06:49.437Z,94165.00
2023-05-14T11:07:49.487Z,94161.00
2023-05-14T11:08:49.540Z,94159.00
2023-05-14T11:09:49.584Z,94159.00
2023-05-14T11:10:49.623Z,94157.00
2023-05-14T11:11:49.677Z,94155.00
2023-05-14T11:12:49.737Z,94157.00
2023-05-14T11:13:49.749Z,94157.00
2023-05-14T11:14:49.803Z,94157.00
2023-05-14T11:15:49.893Z,94155.00
2023-05-14T11:16:50.025Z,94155.00
2023-05-14T11:17:49.980Z,94153.00
2023-05-14T11:18:50.006Z,94155.00
2023-05-14T11:19:51.219Z,94155.00
2023-05-14T11:20:50.052Z,94153.00
2023-05-14T11:21:50.135Z,94147.00
2023-05-14T11:22:50.191Z,94151.00
2023-05-14T11:23:50.206Z,94147.00
2023-05-14T11:24:50.246Z,94147.00
2023-05-14T11:25:50.321Z,94145.00
2023-05-14T11:26:50.340Z,94143.00
2023-05-14T11:27:50.399Z,94145.00
2023-05-14T11:28:50.460Z,94139.00
2023-05-14T11:29:50.490Z,94141.00
2023-05-14T11:30:50.541Z,94141.00
2023-05-14T11:31:50.632Z,94145.00
2023-05-14T11:32:50.762Z,94145.00
2023-05-14T11:33:50.689Z,94139.00
2023-05-14T11:34:50.729Z,94139.00
2023-05-14T11:35:50.790Z,94138.00
2023-05-14T11:36:50.840Z,94139.00
2023-05-14T11:37:50.891Z,94138.00
2023-05-14T11:38:50.957Z,94138.00
2023-05-14T11:39:50.995Z,94139.00
2023-05-14T11:40:51.046Z,94138.00
2023-05-14T11:41:51.139Z,94139.00
2023-05-14T11:42:51.176Z,94145.00
2023-05-14T11:43:51.249Z,94145.00
2023-05-14T11:44:51.283Z,94145.00